Time;durP1;ratioP1;P1;durP2;ratioP2;P2;SDS_P1;SDS_P2;PMS_P1;PMS_P2;Temp;Humidity;BMP_temperature;BMP_pressure;BME280_temperature;BME280_humidity;BME280_pressure;Samples;Min_cycle;Max_cycle;Signal;HPM_P1;HPM_P2
2022/01/15 00:02:57;;;;;;;46.97;25.38;;;;;;;;;;6251466;28;20088;-67
2022/01/15 00:05:59;;;;;;;55.60;29.23;;;;;;;;;;6255220;28;20588;-66
2022/01/15 00:09:00;;;;;;;35.83;20.35;;;;;;;;;;6255869;28;20123;-66
2022/01/15 00:12:02;;;;;;;32.78;20.60;;;;;;;;;;6254552;28;20059;-66
2022/01/15 00:15:04;;;;;;;41.72;20.35;;;;;;;;;;6253733;28;20574;-66
2022/01/15 00:18:12;;;;;;;33.88;19.30;;;;;;;;;;6253857;28;20092;-66
2022/01/15 00:21:14;;;;;;;36.40;20.45;;;;;;;;;;6256352;28;20383;-65
2022/01/15 00:24:16;;;;;;;36.30;19.67;;;;;;;;;;6254216;28;20041;-65
2022/01/15 00:27:18;;;;;;;33.33;20.17;;;;;;;;;;6249053;28;20142;-65
2022/01/15 00:30:20;;;;;;;33.63;19.63;;;;;;;;;;6254549;28;20462;-65
2022/01/15 00:33:24;;;;;;;39.35;21.90;;;;;;;;;;6254449;28;20091;-65
2022/01/15 00:36:25;;;;;;;35.50;20.58;;;;;;;;;;6260508;28;20065;-65
2022/01/15 00:39:27;;;;;;;37.00;21.27;;;;;;;;;;6261609;28;20167;-66
2022/01/15 00:42:30;;;;;;;37.78;21.63;;;;;;;;;;6254304;28;20037;-65
2022/01/15 00:45:33;;;;;;;37.72;20.83;;;;;;;;;;6259384;28;20050;-64
2022/01/15 00:48:36;;;;;;;33.80;20.55;;;;;;;;;;6253262;28;20050;-66
2022/01/15 00:51:38;;;;;;;35.05;20.60;;;;;;;;;;6243992;28;20132;-65
2022/01/15 00:54:39;;;;;;;36.15;20.80;;;;;;;;;;6252819;28;20199;-65
2022/01/15 00:57:41;;;;;;;33.60;19.90;;;;;;;;;;6250904;28;20140;-65
2022/01/15 01:00:45;;;;;;;33.55;19.20;;;;;;;;;;6251160;28;20483;-65
2022/01/15 01:03:48;;;;;;;35.17;18.87;;;;;;;;;;6250824;28;20037;-64
2022/01/15 01:06:49;;;;;;;27.80;19.00;;;;;;;;;;6253642;28;20244;-65
2022/01/15 01:10:03;;;;;;;32.38;19.27;;;;;;;;;;6256449;28;20118;-65
2022/01/15 01:13:16;;;;;;;37.10;18.25;;;;;;;;;;6251082;28;20398;-65
2022/01/15 01:22:58;;;;;;;41.00;20.05;;;;;;;;;;6248875;28;20541;-65
2022/01/15 01:26:11;;;;;;;39.30;18.20;;;;;;;;;;6256026;28;20120;-64
2022/01/15 01:29:24;;;;;;;39.50;17.20;;;;;;;;;;6241203;28;20072;-64
2022/01/15 01:36:04;;;;;;;31.48;17.00;;;;;;;;;;6239869;28;20049;-64
2022/01/15 01:39:12;;;;;;;34.30;17.05;;;;;;;;;;6265445;28;20053;-65
2022/01/15 01:42:33;;;;;;;29.55;16.98;;;;;;;;;;6261063;28;20575;-64
2022/01/15 01:45:35;;;;;;;35.88;16.75;;;;;;;;;;6254546;28;20187;-64
2022/01/15 01:48:36;;;;;;;34.67;16.83;;;;;;;;;;6257149;28;20045;-65
2022/01/15 01:51:40;;;;;;;30.05;16.83;;;;;;;;;;6262432;28;20128;-65
2022/01/15 01:54:42;;;;;;;38.75;17.63;;;;;;;;;;6264239;28;20068;-64
2022/01/15 01:57:44;;;;;;;33.85;17.70;;;;;;;;;;6259275;28;20531;-65
2022/01/15 02:00:45;;;;;;;31.75;16.77;;;;;;;;;;6260470;28;20519;-66
2022/01/15 02:03:47;;;;;;;27.92;17.65;;;;;;;;;;6259762;28;20131;-65
2022/01/15 02:06:50;;;;;;;32.05;16.77;;;;;;;;;;6259411;28;20080;-65
2022/01/15 02:09:52;;;;;;;35.20;18.73;;;;;;;;;;6253985;28;20037;-65
2022/01/15 02:12:55;;;;;;;32.45;16.63;;;;;;;;;;6256476;28;20124;-66
2022/01/15 02:15:57;;;;;;;32.28;17.35;;;;;;;;;;6252937;28;20049;-66
2022/01/15 02:18:59;;;;;;;34.30;17.52;;;;;;;;;;6255083;28;20199;-66
2022/01/15 02:25:21;;;;;;;28.00;15.82;;;;;;;;;;6263925;28;20041;-66
2022/01/15 02:28:24;;;;;;;29.80;15.65;;;;;;;;;;6263599;28;20434;-65
2022/01/15 02:31:28;;;;;;;34.75;16.88;;;;;;;;;;6258486;28;20399;-65
2022/01/15 02:34:29;;;;;;;33.13;16.87;;;;;;;;;;6261758;28;20177;-65
2022/01/15 02:37:32;;;;;;;32.60;17.13;;;;;;;;;;6257552;28;20188;-65
2022/01/15 02:40:35;;;;;;;32.58;18.30;;;;;;;;;;6255255;28;20085;-65
2022/01/15 02:43:37;;;;;;;29.40;17.75;;;;;;;;;;6255323;28;20055;-65
2022/01/15 02:49:54;;;;;;;29.83;18.15;;;;;;;;;;6260946;28;20041;-65
2022/01/15 02:52:57;;;;;;;36.30;18.90;;;;;;;;;;6256078;28;20123;-66
2022/01/15 02:55:59;;;;;;;35.40;19.52;;;;;;;;;;6270829;28;20114;-65
2022/01/15 02:59:02;;;;;;;33.65;19.60;;;;;;;;;;6265167;28;20155;-65
2022/01/15 03:02:04;;;;;;;33.53;19.15;;;;;;;;;;6259044;28;20076;-65
2022/01/15 03:05:07;;;;;;;36.10;19.55;;;;;;;;;;6263076;28;20072;-65
2022/01/15 03:08:10;;;;;;;31.70;18.85;;;;;;;;;;6259223;28;20041;-65
2022/01/15 03:11:12;;;;;;;35.45;20.60;;;;;;;;;;6261587;28;20126;-65
2022/01/15 03:14:18;;;;;;;35.70;19.23;;;;;;;;;;6255813;28;20045;-65
2022/01/15 03:17:19;;;;;;;30.98;19.88;;;;;;;;;;6252006;28;20045;-65
2022/01/15 03:20:21;;;;;;;37.88;20.27;;;;;;;;;;6258217;28;20072;-64
2022/01/15 03:23:24;;;;;;;29.95;18.90;;;;;;;;;;6270955;28;20128;-65
2022/01/15 03:26:26;;;;;;;32.22;19.17;;;;;;;;;;6279159;28;20438;-65
2022/01/15 03:29:27;;;;;;;33.92;19.55;;;;;;;;;;6265767;28;20123;-64
2022/01/15 03:32:29;;;;;;;26.88;18.30;;;;;;;;;;6262463;28;20056;-65
2022/01/15 03:35:30;;;;;;;32.00;19.20;;;;;;;;;;6257592;28;20191;-65
2022/01/15 03:38:33;;;;;;;30.50;18.48;;;;;;;;;;6254637;28;20493;-65
2022/01/15 03:41:35;;;;;;;29.35;17.98;;;;;;;;;;6258722;28;20549;-65
2022/01/15 03:44:36;;;;;;;33.00;18.90;;;;;;;;;;6252996;28;20195;-65
2022/01/15 03:47:38;;;;;;;33.53;18.05;;;;;;;;;;6246509;28;20179;-65
2022/01/15 03:50:39;;;;;;;32.80;18.05;;;;;;;;;;6257095;28;20133;-65
2022/01/15 03:53:42;;;;;;;31.20;18.15;;;;;;;;;;6252644;28;20110;-66
2022/01/15 03:56:44;;;;;;;35.47;17.90;;;;;;;;;;6256007;28;20130;-66
2022/01/15 03:59:46;;;;;;;26.73;16.20;;;;;;;;;;6254715;28;20131;-65
2022/01/15 04:02:47;;;;;;;27.67;16.15;;;;;;;;;;6253009;28;20132;-68
2022/01/15 04:05:49;;;;;;;26.65;16.73;;;;;;;;;;6255798;28;20118;-65
2022/01/15 04:08:52;;;;;;;27.80;17.00;;;;;;;;;;6253881;28;20128;-65
2022/01/15 04:11:54;;;;;;;25.50;15.95;;;;;;;;;;6255019;28;20127;-65
2022/01/15 04:14:55;;;;;;;27.58;16.58;;;;;;;;;;6255895;28;20081;-65
2022/01/15 04:17:57;;;;;;;25.05;15.77;;;;;;;;;;6254378;28;20140;-65
2022/01/15 04:20:58;;;;;;;27.92;16.70;;;;;;;;;;6254342;28;20053;-65
2022/01/15 04:24:02;;;;;;;31.35;16.77;;;;;;;;;;6255839;28;20072;-65
2022/01/15 04:27:04;;;;;;;27.27;16.60;;;;;;;;;;6254138;28;20513;-65
2022/01/15 04:30:07;;;;;;;28.92;17.55;;;;;;;;;;6251943;28;20087;-65
2022/01/15 04:33:09;;;;;;;35.90;18.50;;;;;;;;;;6248945;28;20053;-65
2022/01/15 04:36:11;;;;;;;26.10;17.15;;;;;;;;;;6254131;28;20249;-65
2022/01/15 04:39:14;;;;;;;29.50;17.98;;;;;;;;;;6266407;28;20045;-65
2022/01/15 04:42:20;;;;;;;35.72;17.70;;;;;;;;;;6261792;28;20195;-65
2022/01/15 04:45:22;;;;;;;31.42;18.25;;;;;;;;;;6253720;28;20048;-66
2022/01/15 04:48:23;;;;;;;33.30;18.23;;;;;;;;;;6262949;28;20616;-65
2022/01/15 04:51:25;;;;;;;29.85;18.50;;;;;;;;;;6268671;28;20132;-65
2022/01/15 04:54:28;;;;;;;33.67;18.58;;;;;;;;;;6253895;28;20176;-64
2022/01/15 04:57:30;;;;;;;33.38;19.38;;;;;;;;;;6260373;28;20131;-65
2022/01/15 05:00:31;;;;;;;31.23;17.85;;;;;;;;;;6261869;28;20611;-65
2022/01/15 05:03:33;;;;;;;31.83;19.30;;;;;;;;;;6253478;28;20231;-64
2022/01/15 05:06:35;;;;;;;37.42;19.73;;;;;;;;;;6254407;28;20069;-65
2022/01/15 05:09:38;;;;;;;34.08;19.02;;;;;;;;;;6253128;28;20149;-65
2022/01/15 05:12:44;;;;;;;30.42;18.50;;;;;;;;;;6255428;28;20179;-65
2022/01/15 05:15:46;;;;;;;37.13;18.65;;;;;;;;;;6254420;28;20045;-65
2022/01/15 05:18:48;;;;;;;37.53;18.77;;;;;;;;;;6259696;28;20077;-65
2022/01/15 05:21:49;;;;;;;36.33;20.13;;;;;;;;;;6257280;28;20086;-65
2022/01/15 05:24:52;;;;;;;34.47;18.83;;;;;;;;;;6257446;28;20109;-65
2022/01/15 05:27:54;;;;;;;31.85;18.30;;;;;;;;;;6257553;28;20543;-65
2022/01/15 05:30:55;;;;;;;36.95;19.60;;;;;;;;;;6254300;28;20072;-64
2022/01/15 05:33:57;;;;;;;30.73;18.08;;;;;;;;;;6259229;28;20092;-64
2022/01/15 05:36:59;;;;;;;38.38;19.60;;;;;;;;;;6255245;28;20131;-65
2022/01/15 05:40:02;;;;;;;31.08;18.17;;;;;;;;;;6255482;28;20164;-65
2022/01/15 05:43:03;;;;;;;34.55;19.85;;;;;;;;;;6256889;28;20048;-64
2022/01/15 05:46:05;;;;;;;29.92;18.55;;;;;;;;;;6253825;28;20115;-64
2022/01/15 05:49:06;;;;;;;37.65;18.92;;;;;;;;;;6254628;28;20073;-65
2022/01/15 05:52:08;;;;;;;30.85;18.20;;;;;;;;;;6257592;28;20544;-64
2022/01/15 05:55:11;;;;;;;30.77;17.95;;;;;;;;;;6253013;28;20053;-64
2022/01/15 05:58:13;;;;;;;31.02;18.35;;;;;;;;;;6257335;28;20049;-64
2022/01/15 06:01:14;;;;;;;31.60;17.75;;;;;;;;;;6261928;28;20045;-65
2022/01/15 06:04:16;;;;;;;31.13;18.25;;;;;;;;;;6264165;28;20048;-64
2022/01/15 06:07:18;;;;;;;30.17;18.08;;;;;;;;;;6263879;28;20122;-65
2022/01/15 06:10:21;;;;;;;31.55;17.58;;;;;;;;;;6262692;28;20164;-65
2022/01/15 06:13:22;;;;;;;27.25;16.77;;;;;;;;;;6260026;28;20485;-64
2022/01/15 06:16:24;;;;;;;29.63;16.83;;;;;;;;;;6257464;28;20048;-63
2022/01/15 06:19:25;;;;;;;32.53;18.95;;;;;;;;;;6257079;28;20484;-65
2022/01/15 06:22:27;;;;;;;31.95;17.45;;;;;;;;;;6260342;28;20150;-65
2022/01/15 06:25:30;;;;;;;34.50;18.15;;;;;;;;;;6260573;28;20485;-65
2022/01/15 06:28:31;;;;;;;34.60;17.25;;;;;;;;;;6260144;28;20134;-65
2022/01/15 06:31:33;;;;;;;32.40;16.80;;;;;;;;;;6261083;28;20563;-64
2022/01/15 06:34:35;;;;;;;26.27;16.45;;;;;;;;;;6259499;28;20298;-65
2022/01/15 06:37:36;;;;;;;25.45;16.15;;;;;;;;;;6258590;28;20183;-65
2022/01/15 06:40:39;;;;;;;28.15;16.38;;;;;;;;;;6253079;28;20462;-65
2022/01/15 06:43:41;;;;;;;30.20;16.83;;;;;;;;;;6258269;28;20328;-65
2022/01/15 06:46:43;;;;;;;26.60;16.33;;;;;;;;;;6257531;28;20134;-64
2022/01/15 06:49:45;;;;;;;26.90;16.13;;;;;;;;;;6259986;28;20159;-64
2022/01/15 06:52:46;;;;;;;26.52;15.63;;;;;;;;;;6257616;28;20056;-65
2022/01/15 06:55:52;;;;;;;25.00;15.52;;;;;;;;;;6257422;28;20082;-65
2022/01/15 06:58:54;;;;;;;28.27;17.10;;;;;;;;;;6258017;28;20049;-65
2022/01/15 07:01:55;;;;;;;27.95;16.55;;;;;;;;;;6259685;28;20120;-64
2022/01/15 07:04:57;;;;;;;30.27;17.42;;;;;;;;;;6260334;28;20140;-65
2022/01/15 07:07:58;;;;;;;30.23;17.92;;;;;;;;;;6259211;28;20171;-65
2022/01/15 07:11:01;;;;;;;30.85;17.05;;;;;;;;;;6255911;28;20501;-65
2022/01/15 07:14:03;;;;;;;29.00;18.00;;;;;;;;;;6255680;28;20134;-65
2022/01/15 07:17:05;;;;;;;30.25;18.15;;;;;;;;;;6255156;28;20099;-64
2022/01/15 07:20:07;;;;;;;29.05;18.58;;;;;;;;;;6255983;28;20121;-65
2022/01/15 07:23:08;;;;;;;38.30;17.88;;;;;;;;;;6259149;28;20091;-65
2022/01/15 07:26:11;;;;;;;32.17;19.98;;;;;;;;;;6259150;28;20519;-64
2022/01/15 07:29:15;;;;;;;33.75;19.25;;;;;;;;;;6254248;28;20089;-64
2022/01/15 07:32:17;;;;;;;38.55;19.88;;;;;;;;;;6260581;28;20141;-66
2022/01/15 07:35:19;;;;;;;29.60;19.27;;;;;;;;;;6257042;28;20171;-65
2022/01/15 07:38:21;;;;;;;28.85;19.02;;;;;;;;;;6255775;28;20148;-65
2022/01/15 07:41:24;;;;;;;34.47;20.23;;;;;;;;;;6253148;28;20069;-65
2022/01/15 07:44:25;;;;;;;33.75;18.98;;;;;;;;;;6246713;28;20049;-66
2022/01/15 07:47:27;;;;;;;29.38;18.33;;;;;;;;;;6258216;28;20096;-65
2022/01/15 07:50:29;;;;;;;29.48;18.83;;;;;;;;;;6256115;28;20068;-65
2022/01/15 07:53:31;;;;;;;31.85;19.17;;;;;;;;;;6253440;28;20116;-64
2022/01/15 07:56:34;;;;;;;32.80;19.98;;;;;;;;;;6253259;28;20409;-65
2022/01/15 07:59:36;;;;;;;31.25;18.70;;;;;;;;;;6256162;28;20132;-63
2022/01/15 08:02:37;;;;;;;33.17;19.45;;;;;;;;;;6255776;28;20165;-65
2022/01/15 08:05:39;;;;;;;31.77;19.80;;;;;;;;;;6256525;28;20083;-64
2022/01/15 08:08:41;;;;;;;35.40;19.73;;;;;;;;;;6256495;28;20154;-66
2022/01/15 08:11:44;;;;;;;29.13;19.35;;;;;;;;;;6250069;28;20134;-65
2022/01/15 08:14:45;;;;;;;33.67;19.75;;;;;;;;;;6250611;28;21802;-67
2022/01/15 08:17:47;;;;;;;29.98;19.58;;;;;;;;;;6252332;28;20188;-66
2022/01/15 08:20:48;;;;;;;33.67;20.67;;;;;;;;;;6248517;28;20046;-67
2022/01/15 08:23:50;;;;;;;26.77;19.50;;;;;;;;;;6248693;28;20485;-66
2022/01/15 08:26:53;;;;;;;32.13;19.73;;;;;;;;;;6250262;28;20068;-66
2022/01/15 08:29:55;;;;;;;29.75;20.25;;;;;;;;;;6249094;28;20523;-66
2022/01/15 08:32:57;;;;;;;32.22;20.38;;;;;;;;;;6248298;28;20057;-66
2022/01/15 08:35:58;;;;;;;27.45;19.23;;;;;;;;;;6259120;28;20708;-65
2022/01/15 08:39:00;;;;;;;26.83;18.75;;;;;;;;;;6250110;28;20580;-65
2022/01/15 08:42:05;;;;;;;32.72;21.08;;;;;;;;;;6250436;28;20529;-65
2022/01/15 08:45:08;;;;;;;27.27;19.52;;;;;;;;;;6250836;28;20053;-66
2022/01/15 08:48:10;;;;;;;33.90;20.02;;;;;;;;;;6252204;28;20190;-66
2022/01/15 08:51:12;;;;;;;34.67;20.45;;;;;;;;;;6250158;28;20160;-66
2022/01/15 08:54:14;;;;;;;30.40;20.77;;;;;;;;;;6255306;28;20044;-65
2022/01/15 08:57:17;;;;;;;35.05;21.52;;;;;;;;;;6250286;28;20146;-64
2022/01/15 09:00:20;;;;;;;29.75;19.83;;;;;;;;;;6251914;28;20115;-66
2022/01/15 09:03:22;;;;;;;27.80;20.08;;;;;;;;;;6253619;28;20116;-65
2022/01/15 09:06:23;;;;;;;34.08;21.23;;;;;;;;;;6249921;28;20191;-66
2022/01/15 09:09:25;;;;;;;29.40;20.67;;;;;;;;;;6259708;28;20124;-66
2022/01/15 09:12:28;;;;;;;30.52;21.33;;;;;;;;;;6246033;28;20065;-65
2022/01/15 09:15:30;;;;;;;29.45;21.13;;;;;;;;;;6247789;28;20065;-66
2022/01/15 09:18:31;;;;;;;32.88;20.58;;;;;;;;;;6247511;28;20123;-65
2022/01/15 09:21:33;;;;;;;32.67;21.45;;;;;;;;;;6247191;28;20141;-66
2022/01/15 09:24:35;;;;;;;29.95;19.05;;;;;;;;;;6252389;28;20084;-65
2022/01/15 09:30:57;;;;;;;29.40;19.88;;;;;;;;;;6252538;28;20053;-63
2022/01/15 09:33:58;;;;;;;31.00;20.10;;;;;;;;;;6255856;28;20153;-66
2022/01/15 09:37:00;;;;;;;28.98;18.80;;;;;;;;;;6257486;28;20328;-65
2022/01/15 09:40:01;;;;;;;28.52;21.17;;;;;;;;;;6262947;28;20132;-64
2022/01/15 09:43:05;;;;;;;29.08;21.52;;;;;;;;;;6258533;28;20080;-66
2022/01/15 09:46:08;;;;;;;31.05;22.90;;;;;;;;;;6261795;28;20076;-66
2022/01/15 09:49:11;;;;;;;28.95;21.65;;;;;;;;;;6261645;28;20119;-67
2022/01/15 09:52:12;;;;;;;27.23;22.08;;;;;;;;;;6258258;28;20176;-67
2022/01/15 09:55:15;;;;;;;29.45;21.92;;;;;;;;;;6261502;28;20175;-67
2022/01/15 09:58:18;;;;;;;32.20;21.42;;;;;;;;;;6261564;28;20140;-65
2022/01/15 10:01:20;;;;;;;30.37;22.90;;;;;;;;;;6259415;28;20128;-66
2022/01/15 10:04:22;;;;;;;29.00;22.52;;;;;;;;;;6264012;28;20202;-66
2022/01/15 10:07:27;;;;;;;32.63;23.00;;;;;;;;;;6258570;28;20054;-66
2022/01/15 10:10:30;;;;;;;28.60;22.20;;;;;;;;;;6264531;28;20046;-66
2022/01/15 10:13:43;;;;;;;30.13;22.47;;;;;;;;;;6255439;28;20076;-66
2022/01/15 10:16:45;;;;;;;28.90;22.58;;;;;;;;;;6261041;28;20052;-66
2022/01/15 10:19:47;;;;;;;27.77;22.48;;;;;;;;;;6253846;28;20617;-66
2022/01/15 10:22:51;;;;;;;26.77;21.73;;;;;;;;;;6261536;28;20559;-66
2022/01/15 10:26:12;;;;;;;26.90;21.92;;;;;;;;;;6261504;28;20106;-66
2022/01/15 10:29:15;;;;;;;30.70;22.20;;;;;;;;;;6260234;28;20042;-66
2022/01/15 10:32:17;;;;;;;26.07;21.90;;;;;;;;;;6260552;28;20115;-66
2022/01/15 10:35:19;;;;;;;26.52;21.38;;;;;;;;;;6261075;28;20180;-66
2022/01/15 10:38:20;;;;;;;25.67;20.08;;;;;;;;;;6260223;28;20192;-66
2022/01/15 10:41:34;;;;;;;27.83;20.15;;;;;;;;;;6260988;28;20162;-66
2022/01/15 10:44:38;;;;;;;22.67;18.48;;;;;;;;;;6272815;28;20472;-65
2022/01/15 10:47:44;;;;;;;24.80;19.25;;;;;;;;;;6271280;28;20037;-66
2022/01/15 10:50:55;;;;;;;21.52;18.13;;;;;;;;;;6270576;28;20060;-66
2022/01/15 10:54:02;;;;;;;20.52;18.33;;;;;;;;;;6266264;28;20124;-66
2022/01/15 10:57:08;;;;;;;20.88;17.52;;;;;;;;;;6264573;28;20142;-66
2022/01/15 11:00:18;;;;;;;22.77;17.38;;;;;;;;;;6265829;28;20497;-65
2022/01/15 11:03:20;;;;;;;24.83;19.40;;;;;;;;;;6263479;28;20176;-66
2022/01/15 11:06:35;;;;;;;24.65;19.90;;;;;;;;;;6259554;28;20456;-66
2022/01/15 11:09:36;;;;;;;24.90;20.02;;;;;;;;;;6261897;28;20044;-66
2022/01/15 11:12:38;;;;;;;25.35;20.38;;;;;;;;;;6255179;28;20077;-66
2022/01/15 11:15:42;;;;;;;24.80;20.35;;;;;;;;;;6260091;28;20045;-66
2022/01/15 11:18:45;;;;;;;26.88;19.45;;;;;;;;;;6256398;28;20081;-66
2022/01/15 11:21:47;;;;;;;22.88;18.77;;;;;;;;;;6258659;28;20045;-69
2022/01/15 11:24:50;;;;;;;21.75;17.92;;;;;;;;;;6255145;28;20057;-66
2022/01/15 11:27:51;;;;;;;29.90;19.80;;;;;;;;;;6260151;28;20141;-66
2022/01/15 11:30:56;;;;;;;23.60;17.17;;;;;;;;;;6258165;28;20049;-65
2022/01/15 11:34:00;;;;;;;21.98;16.70;;;;;;;;;;6251997;28;20127;-66
2022/01/15 11:37:15;;;;;;;19.90;16.08;;;;;;;;;;6253133;28;20132;-66
2022/01/15 11:40:43;;;;;;;19.38;16.20;;;;;;;;;;6256536;28;20049;-66
2022/01/15 11:43:45;;;;;;;21.88;18.48;;;;;;;;;;6252780;28;20057;-66
2022/01/15 11:46:50;;;;;;;22.08;18.10;;;;;;;;;;6253318;28;20045;-66
2022/01/15 11:49:52;;;;;;;25.35;18.35;;;;;;;;;;6255568;28;20417;-66
2022/01/15 11:52:54;;;;;;;23.02;18.60;;;;;;;;;;6256722;28;20057;-66
2022/01/15 11:56:17;;;;;;;25.08;19.15;;;;;;;;;;6255994;28;20122;-67
2022/01/15 11:59:52;;;;;;;23.70;17.47;;;;;;;;;;6255453;28;20128;-67
2022/01/15 12:03:15;;;;;;;25.85;19.33;;;;;;;;;;6205123;28;20137;-65
2022/01/15 12:06:17;;;;;;;22.33;19.08;;;;;;;;;;6208631;28;20078;-64
2022/01/15 12:09:31;;;;;;;22.50;18.25;;;;;;;;;;6259903;28;20163;-66
2022/01/15 12:12:45;;;;;;;22.70;19.90;;;;;;;;;;6253755;28;20087;-67
2022/01/15 12:15:48;;;;;;;21.17;17.45;;;;;;;;;;6252979;28;20041;-65
2022/01/15 12:18:52;;;;;;;22.03;17.20;;;;;;;;;;6253885;28;20487;-66
2022/01/15 12:21:57;;;;;;;28.15;18.23;;;;;;;;;;6258813;28;20045;-67
2022/01/15 12:24:59;;;;;;;20.25;17.08;;;;;;;;;;6247197;28;20053;-66
2022/01/15 12:28:03;;;;;;;27.40;16.70;;;;;;;;;;6252447;28;20136;-67
2022/01/15 12:31:05;;;;;;;26.92;16.88;;;;;;;;;;6271253;28;20527;-67
2022/01/15 12:34:08;;;;;;;20.27;16.40;;;;;;;;;;6247162;28;20073;-65
2022/01/15 12:37:14;;;;;;;20.90;16.98;;;;;;;;;;6262517;28;20128;-68
2022/01/15 12:40:16;;;;;;;23.38;17.38;;;;;;;;;;6266336;28;20412;-66
2022/01/15 12:43:19;;;;;;;20.35;16.67;;;;;;;;;;6255898;28;20478;-65
2022/01/15 12:46:22;;;;;;;22.70;17.52;;;;;;;;;;6257617;28;20041;-65
2022/01/15 12:49:35;;;;;;;19.20;17.15;;;;;;;;;;6264380;28;20049;-65
2022/01/15 12:52:37;;;;;;;19.35;17.15;;;;;;;;;;6252317;28;20049;-65
2022/01/15 12:55:40;;;;;;;20.17;17.80;;;;;;;;;;6249722;28;20053;-62
2022/01/15 12:58:42;;;;;;;23.02;18.20;;;;;;;;;;6251692;28;20053;-66
2022/01/15 13:01:49;;;;;;;22.60;18.15;;;;;;;;;;6246269;28;20132;-67
2022/01/15 13:04:55;;;;;;;20.55;18.20;;;;;;;;;;6249369;28;20049;-67
2022/01/15 13:07:58;;;;;;;21.33;18.60;;;;;;;;;;6252973;28;20081;-67
2022/01/15 13:11:06;;;;;;;23.67;17.98;;;;;;;;;;6248070;28;20124;-68
2022/01/15 13:14:07;;;;;;;20.58;17.85;;;;;;;;;;6251076;28;20548;-67
2022/01/15 13:17:27;;;;;;;18.88;16.33;;;;;;;;;;6246576;28;20068;-67
2022/01/15 13:20:34;;;;;;;21.65;17.77;;;;;;;;;;6247670;28;20135;-67
2022/01/15 13:23:38;;;;;;;21.98;17.67;;;;;;;;;;6268316;28;20535;-67
2022/01/15 13:26:41;;;;;;;24.45;18.30;;;;;;;;;;6273394;28;20140;-67
2022/01/15 13:29:43;;;;;;;19.48;17.40;;;;;;;;;;6261347;28;20133;-67
2022/01/15 13:32:52;;;;;;;20.42;17.02;;;;;;;;;;6254032;28;20107;-66
2022/01/15 13:35:55;;;;;;;24.90;18.85;;;;;;;;;;6256007;28;20122;-67
2022/01/15 13:38:57;;;;;;;23.42;18.20;;;;;;;;;;6252906;28;20056;-67
2022/01/15 13:41:58;;;;;;;20.95;16.73;;;;;;;;;;6255684;28;20061;-68
2022/01/15 13:45:05;;;;;;;22.98;16.60;;;;;;;;;;6255868;28;20096;-67
2022/01/15 13:48:12;;;;;;;21.90;18.33;;;;;;;;;;6255996;28;20575;-69
2022/01/15 13:54:36;;;;;;;22.15;19.17;;;;;;;;;;6268754;28;20485;-68
2022/01/15 13:57:39;;;;;;;21.00;18.77;;;;;;;;;;6269875;28;20127;-68
2022/01/15 14:00:41;;;;;;;;;;;;;;;;;;6267431;28;20056;-69
2022/01/15 14:03:43;;;;;;;25.42;19.38;;;;;;;;;;6251670;28;19947;-68
2022/01/15 14:06:46;;;;;;;20.35;18.13;;;;;;;;;;6253522;28;20450;-65
2022/01/15 14:09:52;;;;;;;;;;;;;;;;;;6258448;28;20442;-67
2022/01/15 14:13:02;;;;;;;22.13;18.85;;;;;;;;;;6249620;28;19927;-65
2022/01/15 14:16:19;;;;;;;22.35;18.90;;;;;;;;;;6254518;28;20053;-64
2022/01/15 14:22:48;;;;;;;22.38;17.90;;;;;;;;;;6250959;28;20125;-63
2022/01/15 14:25:50;;;;;;;24.17;18.38;;;;;;;;;;6256438;28;20123;-63
2022/01/15 14:28:53;;;;;;;23.00;18.05;;;;;;;;;;6255083;28;20517;-63
2022/01/15 14:31:57;;;;;;;20.95;17.70;;;;;;;;;;6256861;28;20100;-64
2022/01/15 14:34:59;;;;;;;25.27;18.77;;;;;;;;;;6258981;28;20045;-62
2022/01/15 14:38:02;;;;;;;24.83;19.02;;;;;;;;;;6260605;28;20126;-67
2022/01/15 14:41:04;;;;;;;26.35;17.80;;;;;;;;;;6259352;28;20140;-64
2022/01/15 14:44:06;;;;;;;24.48;19.17;;;;;;;;;;6253272;28;20122;-65
2022/01/15 14:47:08;;;;;;;24.80;19.02;;;;;;;;;;6256699;28;20049;-68
2022/01/15 14:50:10;;;;;;;26.27;18.80;;;;;;;;;;6255788;28;20045;-67
2022/01/15 14:53:13;;;;;;;26.40;19.65;;;;;;;;;;6259309;28;20045;-68
2022/01/15 14:56:15;;;;;;;24.80;19.03;;;;;;;;;;6255155;28;20183;-68
2022/01/15 14:59:16;;;;;;;27.77;20.52;;;;;;;;;;6254022;28;20724;-67
2022/01/15 15:02:18;;;;;;;28.13;20.25;;;;;;;;;;6256844;28;20127;-67
2022/01/15 15:05:20;;;;;;;27.67;20.35;;;;;;;;;;6255771;28;20067;-67
2022/01/15 15:08:23;;;;;;;26.25;20.15;;;;;;;;;;6257825;28;20138;-65
2022/01/15 15:11:26;;;;;;;27.13;20.48;;;;;;;;;;6256729;28;20065;-66
2022/01/15 15:14:27;;;;;;;27.70;20.73;;;;;;;;;;6256854;28;20513;-68
2022/01/15 15:17:29;;;;;;;27.00;20.38;;;;;;;;;;6256889;28;20128;-68
2022/01/15 15:20:30;;;;;;;30.48;20.00;;;;;;;;;;6258643;28;20049;-68
2022/01/15 15:23:33;;;;;;;26.80;19.58;;;;;;;;;;6255424;28;20420;-68
2022/01/15 15:26:35;;;;;;;27.70;20.58;;;;;;;;;;6256045;28;20056;-68
2022/01/15 15:29:37;;;;;;;30.83;20.77;;;;;;;;;;6255607;28;20095;-68
2022/01/15 15:32:39;;;;;;;34.80;21.35;;;;;;;;;;6257947;28;20512;-68
2022/01/15 15:35:41;;;;;;;32.95;20.92;;;;;;;;;;6256636;28;20050;-69
2022/01/15 15:38:44;;;;;;;28.90;20.70;;;;;;;;;;6257970;28;20109;-69
2022/01/15 15:41:47;;;;;;;30.75;20.55;;;;;;;;;;6254293;28;20155;-71
2022/01/15 15:44:48;;;;;;;27.95;19.95;;;;;;;;;;6261454;28;20125;-72
2022/01/15 15:47:50;;;;;;;28.20;20.42;;;;;;;;;;6262361;28;20087;-69
2022/01/15 15:50:52;;;;;;;49.90;22.05;;;;;;;;;;6257813;28;20098;-69
2022/01/15 15:53:55;;;;;;;34.00;20.17;;;;;;;;;;6262306;28;20111;-69
2022/01/15 15:56:56;;;;;;;35.88;21.38;;;;;;;;;;6260092;28;20628;-68
2022/01/15 15:59:58;;;;;;;40.22;20.42;;;;;;;;;;6259800;28;20532;-67
2022/01/15 16:03:00;;;;;;;28.40;19.00;;;;;;;;;;6260953;28;20046;-67
2022/01/15 16:06:04;;;;;;;27.40;18.13;;;;;;;;;;6261671;28;20085;-67
2022/01/15 16:09:07;;;;;;;27.27;17.95;;;;;;;;;;6261756;28;20110;-67
2022/01/15 16:12:09;;;;;;;31.55;18.65;;;;;;;;;;6259272;28;20043;-66
2022/01/15 16:15:11;;;;;;;33.28;19.55;;;;;;;;;;6252311;28;20123;-68
2022/01/15 16:18:13;;;;;;;30.75;18.67;;;;;;;;;;6255946;28;20179;-66
2022/01/15 16:21:16;;;;;;;29.80;17.83;;;;;;;;;;6251400;28;20152;-67
2022/01/15 16:24:19;;;;;;;60.70;30.77;;;;;;;;;;6255484;28;20053;-68
2022/01/15 16:27:20;;;;;;;57.72;30.08;;;;;;;;;;6255441;28;20191;-69
2022/01/15 16:30:22;;;;;;;73.60;37.25;;;;;;;;;;6252272;28;20136;-68
2022/01/15 16:33:23;;;;;;;67.25;35.65;;;;;;;;;;6254509;28;20122;-67
2022/01/15 16:36:25;;;;;;;36.40;19.27;;;;;;;;;;6258380;28;20195;-64
2022/01/15 16:39:29;;;;;;;30.23;16.80;;;;;;;;;;6257587;28;20044;-68
2022/01/15 16:42:30;;;;;;;31.98;16.27;;;;;;;;;;6252225;28;20077;-68
2022/01/15 16:45:32;;;;;;;31.08;18.98;;;;;;;;;;6251744;28;20072;-68
2022/01/15 16:48:34;;;;;;;36.60;18.27;;;;;;;;;;6248371;28;20052;-68
2022/01/15 16:51:35;;;;;;;32.78;18.15;;;;;;;;;;6250428;28;20126;-68
2022/01/15 16:54:38;;;;;;;27.73;16.92;;;;;;;;;;6249879;28;20131;-68
2022/01/15 16:57:43;;;;;;;29.23;18.42;;;;;;;;;;6254824;28;20134;-68
2022/01/15 17:00:45;;;;;;;31.88;17.92;;;;;;;;;;6251737;28;20493;-67
2022/01/15 17:03:47;;;;;;;27.40;16.90;;;;;;;;;;6253112;28;20551;-68
2022/01/15 17:06:48;;;;;;;30.55;17.23;;;;;;;;;;6250971;28;20515;-68
2022/01/15 17:09:51;;;;;;;30.35;18.02;;;;;;;;;;6253630;28;20132;-68
2022/01/15 17:12:53;;;;;;;33.65;18.33;;;;;;;;;;6251960;28;20157;-66
2022/01/15 17:15:55;;;;;;;33.88;17.95;;;;;;;;;;6255067;28;20168;-67
2022/01/15 17:18:56;;;;;;;37.60;18.95;;;;;;;;;;6253768;28;20102;-67
2022/01/15 17:21:58;;;;;;;31.23;18.40;;;;;;;;;;6256461;28;20073;-68
2022/01/15 17:25:01;;;;;;;30.27;18.80;;;;;;;;;;6255895;28;20081;-69
2022/01/15 17:28:05;;;;;;;27.70;17.35;;;;;;;;;;6250022;28;20453;-65
2022/01/15 17:31:06;;;;;;;31.10;17.73;;;;;;;;;;6251377;28;20060;-66
2022/01/15 17:34:08;;;;;;;33.92;18.27;;;;;;;;;;6247274;28;20087;-66
2022/01/15 17:37:09;;;;;;;32.22;17.67;;;;;;;;;;6260321;28;20064;-66
2022/01/15 17:40:13;;;;;;;31.85;18.15;;;;;;;;;;6249164;28;20155;-65
2022/01/15 17:43:15;;;;;;;36.65;18.73;;;;;;;;;;6251296;28;20128;-65
2022/01/15 17:46:17;;;;;;;28.08;17.58;;;;;;;;;;6253552;28;20188;-66
2022/01/15 17:49:19;;;;;;;29.38;17.52;;;;;;;;;;6253533;28;20178;-66
2022/01/15 17:52:21;;;;;;;32.40;18.45;;;;;;;;;;6255330;28;20135;-66
2022/01/15 17:55:24;;;;;;;36.67;17.90;;;;;;;;;;6264721;28;20045;-66
2022/01/15 17:58:25;;;;;;;27.90;17.45;;;;;;;;;;6259018;28;20064;-66
2022/01/15 18:01:27;;;;;;;33.05;18.75;;;;;;;;;;6266397;28;20198;-66
2022/01/15 18:04:28;;;;;;;29.38;17.65;;;;;;;;;;6263333;28;20116;-66
2022/01/15 18:07:30;;;;;;;30.27;17.23;;;;;;;;;;6258419;28;20079;-66
2022/01/15 18:10:33;;;;;;;37.10;17.25;;;;;;;;;;6258915;28;20268;-66
2022/01/15 18:13:35;;;;;;;36.30;18.13;;;;;;;;;;6252065;28;20132;-66
2022/01/15 18:16:36;;;;;;;32.55;17.00;;;;;;;;;;6263236;28;20163;-66